Chamberino, New Mexico
Current Conditions -  °F | °C
As of 5:35 AM on Monday 24 Nov 2014 (Local Time) from KLRU Reporting Station
Clear Clear  
Wind Chill: 24°   Ceiling: Unl
Heat Index: 30°   Visibility: 10mi
Dew Point: -1°   Wind: 7mph
Humidity: 26%   Direction: 320°NW
Pressure: 30.15"   Gusts: NA
Location:  32.05°N, 106.68°W
Report Text: KLRU 241235Z AUTO 32006KT 10SM CLR M01/M18 A3015 RMK AO2 T10091184 PWINO
Loading
Personal Weather Stations






























Interactive Weather Map New forecast layout! Learn more

10-Day Weather Forecast

Advertisements
Track Severe Weather on mobile